sensor_id;sensor_type;location;lat;lon;timestamp;pressure;altitude;pressure_sealevel;temperature;humidity
7834;BME280;3962;42.696;23.354;2023-04-06T00:00:52;94934.75;;;0.97;79.96
7834;BME280;3962;42.696;23.354;2023-04-06T00:03:19;94928.56;;;0.98;79.98
7834;BME280;3962;42.696;23.354;2023-04-06T00:05:48;94934.03;;;0.95;78.97
7834;BME280;3962;42.696;23.354;2023-04-06T00:08:15;94927.97;;;1.07;79.57
7834;BME280;3962;42.696;23.354;2023-04-06T00:10:42;94921.91;;;1.06;78.11
7834;BME280;3962;42.696;23.354;2023-04-06T00:13:08;94917.28;;;1.10;77.94
7834;BME280;3962;42.696;23.354;2023-04-06T00:15:36;94912.25;;;1.07;77.72
7834;BME280;3962;42.696;23.354;2023-04-06T00:18:03;94910.06;;;1.13;77.53
7834;BME280;3962;42.696;23.354;2023-04-06T00:20:30;94907.09;;;1.05;78.95
7834;BME280;3962;42.696;23.354;2023-04-06T00:22:58;94912.25;;;1.07;79.18
7834;BME280;3962;42.696;23.354;2023-04-06T00:25:25;94902.59;;;0.95;79.03
7834;BME280;3962;42.696;23.354;2023-04-06T00:27:52;94907.63;;;0.98;79.97
7834;BME280;3962;42.696;23.354;2023-04-06T00:30:19;94906.13;;;0.94;79.36
7834;BME280;3962;42.696;23.354;2023-04-06T00:32:46;94891.16;;;0.96;80.20
7834;BME280;3962;42.696;23.354;2023-04-06T00:35:12;94888.44;;;0.97;79.85
7834;BME280;3962;42.696;23.354;2023-04-06T00:37:40;94892.75;;;0.98;81.04
7834;BME280;3962;42.696;23.354;2023-04-06T00:40:10;94892.50;;;0.89;80.17
7834;BME280;3962;42.696;23.354;2023-04-06T00:42:37;94887.78;;;0.94;79.38
7834;BME280;3962;42.696;23.354;2023-04-06T00:45:04;94901.47;;;0.85;79.99
7834;BME280;3962;42.696;23.354;2023-04-06T00:47:31;94893.78;;;0.96;80.27
7834;BME280;3962;42.696;23.354;2023-04-06T00:49:58;94891.03;;;0.97;79.18
7834;BME280;3962;42.696;23.354;2023-04-06T00:52:25;94884.06;;;1.10;79.17
7834;BME280;3962;42.696;23.354;2023-04-06T00:54:52;94877.75;;;1.00;77.67
7834;BME280;3962;42.696;23.354;2023-04-06T00:57:20;94882.88;;;1.02;78.38
7834;BME280;3962;42.696;23.354;2023-04-06T00:59:47;94882.78;;;1.03;77.79
7834;BME280;3962;42.696;23.354;2023-04-06T01:02:14;94879.81;;;1.22;78.26
7834;BME280;3962;42.696;23.354;2023-04-06T01:04:41;94880.19;;;1.16;77.16
7834;BME280;3962;42.696;23.354;2023-04-06T01:07:08;94876.31;;;1.09;77.14
7834;BME280;3962;42.696;23.354;2023-04-06T01:09:35;94876.00;;;1.13;77.92
7834;BME280;3962;42.696;23.354;2023-04-06T01:12:02;94872.56;;;1.13;76.71
7834;BME280;3962;42.696;23.354;2023-04-06T01:14:31;94879.50;;;1.26;76.96
7834;BME280;3962;42.696;23.354;2023-04-06T01:16:58;94882.63;;;1.19;76.96
7834;BME280;3962;42.696;23.354;2023-04-06T01:19:27;94873.31;;;1.27;77.60
7834;BME280;3962;42.696;23.354;2023-04-06T01:21:54;94866.91;;;1.06;77.18
7834;BME280;3962;42.696;23.354;2023-04-06T01:24:22;94865.75;;;1.23;77.30
7834;BME280;3962;42.696;23.354;2023-04-06T01:26:49;94862.91;;;1.26;77.56
7834;BME280;3962;42.696;23.354;2023-04-06T01:29:16;94864.41;;;1.42;77.43
7834;BME280;3962;42.696;23.354;2023-04-06T01:31:43;94866.28;;;1.15;76.61
7834;BME280;3962;42.696;23.354;2023-04-06T01:34:10;94862.66;;;1.30;77.32
7834;BME280;3962;42.696;23.354;2023-04-06T01:36:37;94850.75;;;1.25;77.45
7834;BME280;3962;42.696;23.354;2023-04-06T01:39:04;94853.63;;;1.34;77.42
7834;BME280;3962;42.696;23.354;2023-04-06T01:41:32;94857.19;;;1.46;76.94
7834;BME280;3962;42.696;23.354;2023-04-06T01:43:59;94854.16;;;1.39;77.48
7834;BME280;3962;42.696;23.354;2023-04-06T01:46:26;94854.03;;;1.53;76.36
7834;BME280;3962;42.696;23.354;2023-04-06T01:48:53;94856.47;;;1.69;76.01
7834;BME280;3962;42.696;23.354;2023-04-06T01:51:19;94846.81;;;1.44;76.13
7834;BME280;3962;42.696;23.354;2023-04-06T01:53:46;94845.56;;;1.50;77.51
7834;BME280;3962;42.696;23.354;2023-04-06T01:56:14;94841.56;;;1.57;77.73
7834;BME280;3962;42.696;23.354;2023-04-06T01:58:42;94845.34;;;1.53;76.14
7834;BME280;3962;42.696;23.354;2023-04-06T02:01:10;94845.34;;;1.53;76.27
7834;BME280;3962;42.696;23.354;2023-04-06T02:03:37;94838.00;;;1.45;77.18
7834;BME280;3962;42.696;23.354;2023-04-06T02:06:04;94841.13;;;1.25;78.29
7834;BME280;3962;42.696;23.354;2023-04-06T02:08:31;94841.22;;;1.24;78.09
7834;BME280;3962;42.696;23.354;2023-04-06T02:10:58;94837.56;;;1.26;77.90
7834;BME280;3962;42.696;23.354;2023-04-06T02:13:25;94842.50;;;1.31;78.46
7834;BME280;3962;42.696;23.354;2023-04-06T02:15:53;94832.75;;;1.33;77.94
7834;BME280;3962;42.696;23.354;2023-04-06T02:18:20;94833.28;;;1.38;77.23
7834;BME280;3962;42.696;23.354;2023-04-06T02:20:47;94841.69;;;1.55;77.01
7834;BME280;3962;42.696;23.354;2023-04-06T02:23:14;94836.94;;;1.60;77.61
7834;BME280;3962;42.696;23.354;2023-04-06T02:25:41;94830.88;;;1.60;77.01
7834;BME280;3962;42.696;23.354;2023-04-06T02:28:08;94842.09;;;1.62;76.83
7834;BME280;3962;42.696;23.354;2023-04-06T02:30:35;94848.28;;;1.61;77.17
7834;BME280;3962;42.696;23.354;2023-04-06T02:33:04;94844.63;;;1.38;78.01
7834;BME280;3962;42.696;23.354;2023-04-06T02:35:31;94839.25;;;1.27;77.97
7834;BME280;3962;42.696;23.354;2023-04-06T02:37:58;94842.09;;;1.37;79.18
7834;BME280;3962;42.696;23.354;2023-04-06T02:40:25;94847.25;;;1.51;79.20
7834;BME280;3962;42.696;23.354;2023-04-06T02:42:52;94838.53;;;1.63;77.84
7834;BME280;3962;42.696;23.354;2023-04-06T02:45:18;94836.75;;;1.63;77.64
7834;BME280;3962;42.696;23.354;2023-04-06T02:47:45;94841.88;;;1.65;77.94
7834;BME280;3962;42.696;23.354;2023-04-06T02:50:15;94841.16;;;1.63;77.36
7834;BME280;3962;42.696;23.354;2023-04-06T02:52:42;94837.38;;;1.67;76.65
7834;BME280;3962;42.696;23.354;2023-04-06T02:55:09;94835.81;;;1.77;76.68
7834;BME280;3962;42.696;23.354;2023-04-06T02:57:36;94835.25;;;1.72;77.06
7834;BME280;3962;42.696;23.354;2023-04-06T03:00:03;94840.31;;;1.62;76.79
7834;BME280;3962;42.696;23.354;2023-04-06T03:02:30;94836.13;;;1.72;75.79
7834;BME280;3962;42.696;23.354;2023-04-06T03:04:57;94829.63;;;1.65;76.45
7834;BME280;3962;42.696;23.354;2023-04-06T03:07:25;94831.09;;;1.69;76.01
7834;BME280;3962;42.696;23.354;2023-04-06T03:09:52;94829.38;;;1.81;74.97
7834;BME280;3962;42.696;23.354;2023-04-06T03:12:20;94836.22;;;1.71;74.77
7834;BME280;3962;42.696;23.354;2023-04-06T03:14:47;94833.59;;;1.71;75.18
7834;BME280;3962;42.696;23.354;2023-04-06T03:17:14;94833.59;;;1.71;74.80
7834;BME280;3962;42.696;23.354;2023-04-06T03:19:41;94831.91;;;1.82;74.10
7834;BME280;3962;42.696;23.354;2023-04-06T03:22:08;94836.97;;;1.85;74.09
7834;BME280;3962;42.696;23.354;2023-04-06T03:24:36;94832.94;;;1.92;74.46
7834;BME280;3962;42.696;23.354;2023-04-06T03:27:03;94825.38;;;1.88;73.46
7834;BME280;3962;42.696;23.354;2023-04-06T03:29:30;94824.91;;;1.70;74.79
7834;BME280;3962;42.696;23.354;2023-04-06T03:31:57;94834.31;;;1.73;76.28
7834;BME280;3962;42.696;23.354;2023-04-06T03:34:24;94829.81;;;1.75;76.82
7834;BME280;3962;42.696;23.354;2023-04-06T03:36:50;94826.56;;;1.84;75.75
7834;BME280;3962;42.696;23.354;2023-04-06T03:39:17;94828.47;;;1.82;75.49
7834;BME280;3962;42.696;23.354;2023-04-06T03:41:46;94826.47;;;1.85;75.56
7834;BME280;3962;42.696;23.354;2023-04-06T03:44:13;94834.44;;;1.71;75.56
7834;BME280;3962;42.696;23.354;2023-04-06T03:46:40;94821.44;;;1.70;76.08
7834;BME280;3962;42.696;23.354;2023-04-06T03:49:07;94834.03;;;1.77;76.09
7834;BME280;3962;42.696;23.354;2023-04-06T03:51:34;94826.78;;;1.68;76.32
7834;BME280;3962;42.696;23.354;2023-04-06T03:54:00;94829.41;;;1.68;76.36
7834;BME280;3962;42.696;23.354;2023-04-06T03:56:27;94826.38;;;1.62;76.69
7834;BME280;3962;42.696;23.354;2023-04-06T03:58:56;94825.41;;;1.63;77.99
7834;BME280;3962;42.696;23.354;2023-04-06T04:01:23;94834.97;;;1.51;78.16
7834;BME280;3962;42.696;23.354;2023-04-06T04:03:50;94833.81;;;1.55;78.57
7834;BME280;3962;42.696;23.354;2023-04-06T04:06:17;94824.69;;;1.61;78.80
7834;BME280;3962;42.696;23.354;2023-04-06T04:08:44;94831.38;;;1.40;77.84
7834;BME280;3962;42.696;23.354;2023-04-06T04:11:11;94834.22;;;1.49;78.51
7834;BME280;3962;42.696;23.354;2023-04-06T04:13:38;94827.22;;;1.50;79.08
7834;BME280;3962;42.696;23.354;2023-04-06T04:16:06;94832.88;;;1.56;78.59
7834;BME280;3962;42.696;23.354;2023-04-06T04:18:33;94840.09;;;1.53;78.38
7834;BME280;3962;42.696;23.354;2023-04-06T04:21:00;94836.94;;;1.48;79.17
7834;BME280;3962;42.696;23.354;2023-04-06T04:23:27;94833.91;;;1.54;78.22
7834;BME280;3962;42.696;23.354;2023-04-06T04:25:54;94827.22;;;1.50;78.35
7834;BME280;3962;42.696;23.354;2023-04-06T04:28:21;94823.75;;;1.49;79.04
7834;BME280;3962;42.696;23.354;2023-04-06T04:30:48;94828.03;;;1.50;77.88
7834;BME280;3962;42.696;23.354;2023-04-06T04:33:16;94826.47;;;1.60;77.32
7834;BME280;3962;42.696;23.354;2023-04-06T04:35:43;94828.66;;;1.66;76.62
7834;BME280;3962;42.696;23.354;2023-04-06T04:38:10;94832.97;;;1.67;76.43
7834;BME280;3962;42.696;23.354;2023-04-06T04:40:37;94840.72;;;1.81;75.70
7834;BME280;3962;42.696;23.354;2023-04-06T04:43:04;94829.50;;;1.92;76.22
7834;BME280;3962;42.696;23.354;2023-04-06T04:45:31;94826.25;;;1.88;74.22
7834;BME280;3962;42.696;23.354;2023-04-06T04:47:57;94833.56;;;1.83;74.78
7834;BME280;3962;42.696;23.354;2023-04-06T04:50:26;94837.03;;;1.96;75.33
7834;BME280;3962;42.696;23.354;2023-04-06T04:52:53;94836.28;;;2.07;74.85
7834;BME280;3962;42.696;23.354;2023-04-06T04:55:20;94831.44;;;2.13;75.32
7834;BME280;3962;42.696;23.354;2023-04-06T04:57:47;94830.31;;;2.05;76.41
7834;BME280;3962;42.696;23.354;2023-04-06T05:00:14;94834.63;;;2.06;77.44
7834;BME280;3962;42.696;23.354;2023-04-06T05:02:41;94833.75;;;2.18;77.69
7834;BME280;3962;42.696;23.354;2023-04-06T05:05:08;94831.06;;;2.30;76.52
7834;BME280;3962;42.696;23.354;2023-04-06T05:07:36;94825.97;;;2.16;76.91
7834;BME280;3962;42.696;23.354;2023-04-06T05:10:04;94826.34;;;1.87;77.99
7834;BME280;3962;42.696;23.354;2023-04-06T05:12:31;94828.34;;;1.83;78.05
7834;BME280;3962;42.696;23.354;2023-04-06T05:14:58;94835.69;;;1.91;77.25
7834;BME280;3962;42.696;23.354;2023-04-06T05:17:25;94834.19;;;1.99;77.17
7834;BME280;3962;42.696;23.354;2023-04-06T05:19:52;94833.88;;;1.91;77.52
7834;BME280;3962;42.696;23.354;2023-04-06T05:22:19;94834.63;;;2.06;77.46
7834;BME280;3962;42.696;23.354;2023-04-06T05:24:47;94828.19;;;2.10;76.51
7834;BME280;3962;42.696;23.354;2023-04-06T05:27:14;94835.88;;;2.00;76.43
7834;BME280;3962;42.696;23.354;2023-04-06T05:29:41;94832.91;;;2.17;75.82
7834;BME280;3962;42.696;23.354;2023-04-06T05:32:08;94829.41;;;2.29;75.88
7834;BME280;3962;42.696;23.354;2023-04-06T05:34:35;94829.03;;;2.10;75.36
7834;BME280;3962;42.696;23.354;2023-04-06T05:37:03;94835.63;;;2.16;75.45
7834;BME280;3962;42.696;23.354;2023-04-06T05:39:30;94826.28;;;2.12;75.05
7834;BME280;3962;42.696;23.354;2023-04-06T05:42:01;94826.44;;;1.98;76.15
7834;BME280;3962;42.696;23.354;2023-04-06T05:44:28;94829.25;;;1.95;75.57
7834;BME280;3962;42.696;23.354;2023-04-06T05:46:55;94832.28;;;2.14;75.46
7834;BME280;3962;42.696;23.354;2023-04-06T05:49:22;94834.22;;;1.87;76.51
7834;BME280;3962;42.696;23.354;2023-04-06T05:51:49;94829.69;;;1.89;77.17
7834;BME280;3962;42.696;23.354;2023-04-06T05:54:15;94821.91;;;2.00;77.64
7834;BME280;3962;42.696;23.354;2023-04-06T05:56:42;94831.56;;;1.99;78.14
7834;BME280;3962;42.696;23.354;2023-04-06T05:59:11;94825.66;;;2.08;76.81
7834;BME280;3962;42.696;23.354;2023-04-06T06:01:37;94819.63;;;1.95;76.68
7834;BME280;3962;42.696;23.354;2023-04-06T06:04:04;94824.13;;;2.06;77.72
7834;BME280;3962;42.696;23.354;2023-04-06T06:06:31;94820.66;;;2.05;77.25
7834;BME280;3962;42.696;23.354;2023-04-06T06:08:58;94819.63;;;1.95;78.66
7834;BME280;3962;42.696;23.354;2023-04-06T06:11:26;94818.88;;;2.06;77.50
7834;BME280;3962;42.696;23.354;2023-04-06T06:13:53;94818.72;;;2.20;77.80
7834;BME280;3962;42.696;23.354;2023-04-06T06:16:21;94817.31;;;2.03;78.29
7834;BME280;3962;42.696;23.354;2023-04-06T06:18:48;94817.59;;;2.11;78.21
7834;BME280;3962;42.696;23.354;2023-04-06T06:21:15;94814.44;;;2.06;76.85
7834;BME280;3962;42.696;23.354;2023-04-06T06:23:42;94813.47;;;2.20;76.17
7834;BME280;3962;42.696;23.354;2023-04-06T06:26:10;94817.78;;;2.08;76.04
7834;BME280;3962;42.696;23.354;2023-04-06T06:28:37;94818.72;;;2.20;76.17
7834;BME280;3962;42.696;23.354;2023-04-06T06:31:04;94810.91;;;1.95;76.46
7834;BME280;3962;42.696;23.354;2023-04-06T06:33:37;94818.66;;;2.09;76.46
7834;BME280;3962;42.696;23.354;2023-04-06T06:36:05;94818.25;;;2.38;76.35
7834;BME280;3962;42.696;23.354;2023-04-06T06:38:33;94817.25;;;2.52;75.42
7834;BME280;3962;42.696;23.354;2023-04-06T06:41:00;94818.28;;;2.62;75.46
7834;BME280;3962;42.696;23.354;2023-04-06T06:43:27;94820.09;;;2.49;75.89
7834;BME280;3962;42.696;23.354;2023-04-06T06:45:54;94823.16;;;2.43;74.89
7834;BME280;3962;42.696;23.354;2023-04-06T06:48:21;94809.50;;;2.50;75.22
7834;BME280;3962;42.696;23.354;2023-04-06T06:50:52;94823.09;;;2.55;75.00
7834;BME280;3962;42.696;23.354;2023-04-06T06:53:19;94820.47;;;2.55;74.59
7834;BME280;3962;42.696;23.354;2023-04-06T06:55:46;94827.69;;;2.41;76.34
7834;BME280;3962;42.696;23.354;2023-04-06T06:58:14;94822.44;;;2.41;76.83
7834;BME280;3962;42.696;23.354;2023-04-06T07:00:41;94822.81;;;2.60;76.27
7834;BME280;3962;42.696;23.354;2023-04-06T07:03:08;94821.56;;;2.76;76.31
7834;BME280;3962;42.696;23.354;2023-04-06T07:05:35;94817.81;;;2.91;74.88
7834;BME280;3962;42.696;23.354;2023-04-06T07:08:03;94820.50;;;2.79;73.75
7834;BME280;3962;42.696;23.354;2023-04-06T07:10:31;94812.53;;;2.80;73.59
7834;BME280;3962;42.696;23.354;2023-04-06T07:12:57;94815.63;;;2.85;72.42
7834;BME280;3962;42.696;23.354;2023-04-06T07:15:25;94813.88;;;3.20;73.26
7834;BME280;3962;42.696;23.354;2023-04-06T07:17:52;94824.47;;;3.64;72.61
7834;BME280;3962;42.696;23.354;2023-04-06T07:20:20;94822.09;;;3.61;71.27
7834;BME280;3962;42.696;23.354;2023-04-06T07:22:47;94819.69;;;3.58;71.18
7834;BME280;3962;42.696;23.354;2023-04-06T07:25:15;94810.00;;;3.69;71.41
7834;BME280;3962;42.696;23.354;2023-04-06T07:27:42;94821.22;;;3.60;71.83
7834;BME280;3962;42.696;23.354;2023-04-06T07:30:10;94803.44;;;3.86;70.95
7834;BME280;3962;42.696;23.354;2023-04-06T07:32:37;94818.75;;;3.81;70.69
7834;BME280;3962;42.696;23.354;2023-04-06T07:35:04;94804.16;;;3.88;69.97
7834;BME280;3962;42.696;23.354;2023-04-06T07:37:31;94819.69;;;4.13;69.37
7834;BME280;3962;42.696;23.354;2023-04-06T07:39:59;94805.13;;;3.98;69.46
7834;BME280;3962;42.696;23.354;2023-04-06T07:42:27;94805.13;;;3.76;69.11
7834;BME280;3962;42.696;23.354;2023-04-06T07:44:54;94804.06;;;3.33;71.01
7834;BME280;3962;42.696;23.354;2023-04-06T07:47:21;94794.47;;;3.88;71.20
7834;BME280;3962;42.696;23.354;2023-04-06T07:49:48;94802.75;;;4.70;68.35
7834;BME280;3962;42.696;23.354;2023-04-06T07:52:15;94816.69;;;5.24;65.62
7834;BME280;3962;42.696;23.354;2023-04-06T07:54:42;94811.78;;;6.32;63.72
7834;BME280;3962;42.696;23.354;2023-04-06T07:57:09;94814.09;;;7.13;61.53
7834;BME280;3962;42.696;23.354;2023-04-06T07:59:37;94811.97;;;6.98;59.76
7834;BME280;3962;42.696;23.354;2023-04-06T08:02:05;94796.50;;;6.35;60.01
7834;BME280;3962;42.696;23.354;2023-04-06T08:04:32;94802.69;;;5.44;61.92
7834;BME280;3962;42.696;23.354;2023-04-06T08:06:59;94803.75;;;4.90;64.92
7834;BME280;3962;42.696;23.354;2023-04-06T08:09:26;94806.38;;;5.01;65.11
7834;BME280;3962;42.696;23.354;2023-04-06T08:11:53;94806.78;;;5.78;63.64
7834;BME280;3962;42.696;23.354;2023-04-06T08:14:20;94811.66;;;6.82;60.73
7834;BME280;3962;42.696;23.354;2023-04-06T08:16:49;94805.88;;;7.64;57.47
7834;BME280;3962;42.696;23.354;2023-04-06T08:19:16;94801.25;;;7.66;56.95
7834;BME280;3962;42.696;23.354;2023-04-06T08:21:44;94795.69;;;7.31;57.15
7834;BME280;3962;42.696;23.354;2023-04-06T08:24:11;94805.91;;;6.58;58.12
7834;BME280;3962;42.696;23.354;2023-04-06T08:26:38;94804.72;;;6.91;56.57
7834;BME280;3962;42.696;23.354;2023-04-06T08:29:05;94810.69;;;6.74;55.85
7834;BME280;3962;42.696;23.354;2023-04-06T08:31:39;94807.59;;;6.29;58.10
7834;BME280;3962;42.696;23.354;2023-04-06T08:34:07;94807.19;;;6.73;58.32
7834;BME280;3962;42.696;23.354;2023-04-06T08:36:34;94815.31;;;7.09;55.07
7834;BME280;3962;42.696;23.354;2023-04-06T08:39:01;94809.47;;;7.72;55.72
7834;BME280;3962;42.696;23.354;2023-04-06T08:41:28;94812.09;;;7.91;54.59
7834;BME280;3962;42.696;23.354;2023-04-06T08:43:57;94812.03;;;8.01;54.52
7834;BME280;3962;42.696;23.354;2023-04-06T08:46:26;94808.22;;;7.29;55.36
7834;BME280;3962;42.696;23.354;2023-04-06T08:48:55;94804.88;;;7.46;56.31
7834;BME280;3962;42.696;23.354;2023-04-06T08:51:25;94815.19;;;7.39;55.51
7834;BME280;3962;42.696;23.354;2023-04-06T08:53:53;94807.47;;;6.80;56.98
7834;BME280;3962;42.696;23.354;2023-04-06T08:56:21;94813.06;;;6.86;57.71
7834;BME280;3962;42.696;23.354;2023-04-06T08:58:49;94809.75;;;6.94;56.88
7834;BME280;3962;42.696;23.354;2023-04-06T09:01:18;94806.53;;;6.90;56.97
7834;BME280;3962;42.696;23.354;2023-04-06T09:03:48;94807.28;;;7.49;55.80
7834;BME280;3962;42.696;23.354;2023-04-06T09:06:15;94812.22;;;7.80;55.22
7834;BME280;3962;42.696;23.354;2023-04-06T09:08:44;94811.84;;;7.28;55.49
7834;BME280;3962;42.696;23.354;2023-04-06T09:11:14;94801.28;;;7.09;56.98
7834;BME280;3962;42.696;23.354;2023-04-06T09:13:46;94803.66;;;8.05;54.92
7834;BME280;3962;42.696;23.354;2023-04-06T09:16:14;94795.09;;;7.75;53.76
7834;BME280;3962;42.696;23.354;2023-04-06T09:18:41;94792.75;;;7.62;54.24
7834;BME280;3962;42.696;23.354;2023-04-06T09:21:09;94800.72;;;7.43;54.75
7834;BME280;3962;42.696;23.354;2023-04-06T09:23:37;94803.47;;;7.80;53.53
7834;BME280;3962;42.696;23.354;2023-04-06T09:26:10;94797.13;;;8.00;53.43
7834;BME280;3962;42.696;23.354;2023-04-06T09:28:45;94793.50;;;8.01;53.86
7834;BME280;3962;42.696;23.354;2023-04-06T09:31:12;94807.47;;;8.03;53.50
7834;BME280;3962;42.696;23.354;2023-04-06T09:33:41;94788.28;;;7.63;52.67
7834;BME280;3962;42.696;23.354;2023-04-06T09:36:08;94791.34;;;7.58;54.24
7834;BME280;3962;42.696;23.354;2023-04-06T09:38:37;94796.34;;;7.90;53.41
7834;BME280;3962;42.696;23.354;2023-04-06T09:41:04;94795.00;;;8.13;52.07
7834;BME280;3962;42.696;23.354;2023-04-06T09:43:34;94791.72;;;8.47;52.63
7834;BME280;3962;42.696;23.354;2023-04-06T09:46:01;94794.94;;;8.41;52.46
7834;BME280;3962;42.696;23.354;2023-04-06T09:48:31;94794.34;;;8.01;53.48
7834;BME280;3962;42.696;23.354;2023-04-06T09:51:03;94785.19;;;7.86;52.78
7834;BME280;3962;42.696;23.354;2023-04-06T09:53:31;94799.72;;;7.54;54.20
7834;BME280;3962;42.696;23.354;2023-04-06T09:56:03;94784.28;;;7.11;54.43
7834;BME280;3962;42.696;23.354;2023-04-06T09:58:36;94793.56;;;7.91;53.88
7834;BME280;3962;42.696;23.354;2023-04-06T10:01:07;94794.22;;;7.93;53.53
7834;BME280;3962;42.696;23.354;2023-04-06T10:03:41;94798.47;;;7.67;55.31
7834;BME280;3962;42.696;23.354;2023-04-06T10:06:14;94788.56;;;7.69;53.86
7834;BME280;3962;42.696;23.354;2023-04-06T10:08:42;94800.72;;;7.34;54.24
7834;BME280;3962;42.696;23.354;2023-04-06T10:11:12;94790.41;;;7.40;53.95
7834;BME280;3962;42.696;23.354;2023-04-06T10:13:41;94795.94;;;6.90;57.06
7834;BME280;3962;42.696;23.354;2023-04-06T10:16:09;94802.78;;;7.11;55.24
7834;BME280;3962;42.696;23.354;2023-04-06T10:18:39;94788.72;;;6.92;55.42
7834;BME280;3962;42.696;23.354;2023-04-06T10:21:12;94777.59;;;6.40;55.52
7834;BME280;3962;42.696;23.354;2023-04-06T10:23:44;94778.19;;;6.04;56.71
7834;BME280;3962;42.696;23.354;2023-04-06T10:26:13;94780.72;;;6.15;57.58
7834;BME280;3962;42.696;23.354;2023-04-06T10:28:43;94786.06;;;6.73;56.77
7834;BME280;3962;42.696;23.354;2023-04-06T10:31:12;94774.09;;;6.69;56.53
7834;BME280;3962;42.696;23.354;2023-04-06T10:33:40;94775.78;;;6.89;55.14
7834;BME280;3962;42.696;23.354;2023-04-06T10:36:11;94775.09;;;7.53;54.86
7834;BME280;3962;42.696;23.354;2023-04-06T10:38:39;94763.81;;;7.97;52.90
7834;BME280;3962;42.696;23.354;2023-04-06T10:41:07;94778.84;;;7.41;53.29
7834;BME280;3962;42.696;23.354;2023-04-06T10:43:35;94772.72;;;7.03;54.41
7834;BME280;3962;42.696;23.354;2023-04-06T10:46:04;94764.78;;;7.31;54.11
7834;BME280;3962;42.696;23.354;2023-04-06T10:48:39;94769.34;;;7.67;54.68
7834;BME280;3962;42.696;23.354;2023-04-06T10:51:11;94768.38;;;7.59;53.77
7834;BME280;3962;42.696;23.354;2023-04-06T10:53:38;94778.41;;;7.46;54.75
7834;BME280;3962;42.696;23.354;2023-04-06T10:56:10;94770.59;;;7.54;54.70
7834;BME280;3962;42.696;23.354;2023-04-06T10:58:38;94778.16;;;7.11;54.03
7834;BME280;3962;42.696;23.354;2023-04-06T11:01:12;94768.00;;;7.07;53.89
7834;BME280;3962;42.696;23.354;2023-04-06T11:03:43;94758.22;;;7.54;53.50
7834;BME280;3962;42.696;23.354;2023-04-06T11:06:10;94750.16;;;7.56;52.59
7834;BME280;3962;42.696;23.354;2023-04-06T11:08:38;94761.03;;;6.96;53.42
7834;BME280;3962;42.696;23.354;2023-04-06T11:11:06;94764.81;;;7.13;53.67
7834;BME280;3962;42.696;23.354;2023-04-06T11:13:39;94750.97;;;7.56;53.55
7834;BME280;3962;42.696;23.354;2023-04-06T11:16:13;94763.50;;;7.45;53.68
7834;BME280;3962;42.696;23.354;2023-04-06T11:18:50;94762.59;;;7.82;53.11
7834;BME280;3962;42.696;23.354;2023-04-06T11:21:17;94753.75;;;7.55;52.93
7834;BME280;3962;42.696;23.354;2023-04-06T11:23:44;94726.16;;;7.57;53.00
7834;BME280;3962;42.696;23.354;2023-04-06T11:26:12;94749.06;;;7.11;53.49
7834;BME280;3962;42.696;23.354;2023-04-06T11:28:40;94750.59;;;7.04;53.26
7834;BME280;3962;42.696;23.354;2023-04-06T11:31:09;94748.38;;;7.09;54.70
7834;BME280;3962;42.696;23.354;2023-04-06T11:33:38;94747.50;;;7.46;53.64
7834;BME280;3962;42.696;23.354;2023-04-06T11:36:06;94743.19;;;7.36;53.27
7834;BME280;3962;42.696;23.354;2023-04-06T11:38:34;94752.19;;;7.71;53.03
7834;BME280;3962;42.696;23.354;2023-04-06T11:41:05;94742.28;;;7.73;52.31
7834;BME280;3962;42.696;23.354;2023-04-06T11:43:32;94752.53;;;7.21;53.09
7834;BME280;3962;42.696;23.354;2023-04-06T11:46:01;94738.59;;;6.81;54.76
7834;BME280;3962;42.696;23.354;2023-04-06T11:48:29;94749.44;;;6.50;53.66
7834;BME280;3962;42.696;23.354;2023-04-06T11:50:58;94748.94;;;6.35;54.64
7834;BME280;3962;42.696;23.354;2023-04-06T11:53:26;94734.00;;;6.06;56.32
7834;BME280;3962;42.696;23.354;2023-04-06T11:55:54;94737.00;;;6.31;56.41
7834;BME280;3962;42.696;23.354;2023-04-06T11:58:21;94727.56;;;6.48;55.25
7834;BME280;3962;42.696;23.354;2023-04-06T12:00:48;94731.50;;;6.72;55.58
7834;BME280;3962;42.696;23.354;2023-04-06T12:03:15;94730.66;;;6.62;54.79
7834;BME280;3962;42.696;23.354;2023-04-06T12:05:44;94724.75;;;6.30;55.23
7834;BME280;3962;42.696;23.354;2023-04-06T12:08:12;94730.50;;;6.64;55.77
7834;BME280;3962;42.696;23.354;2023-04-06T12:10:39;94724.63;;;6.41;54.85
7834;BME280;3962;42.696;23.354;2023-04-06T12:13:06;94730.09;;;6.68;55.63
7834;BME280;3962;42.696;23.354;2023-04-06T12:15:33;94721.63;;;6.74;55.32
7834;BME280;3962;42.696;23.354;2023-04-06T12:18:01;94725.50;;;6.80;54.77
7834;BME280;3962;42.696;23.354;2023-04-06T12:20:28;94714.38;;;6.76;54.17
7834;BME280;3962;42.696;23.354;2023-04-06T12:22:55;94720.94;;;6.91;54.78
7834;BME280;3962;42.696;23.354;2023-04-06T12:25:24;94724.50;;;6.52;55.36
7834;BME280;3962;42.696;23.354;2023-04-06T12:27:51;94710.88;;;6.57;55.00
7834;BME280;3962;42.696;23.354;2023-04-06T12:30:18;94718.00;;;6.75;54.91
7834;BME280;3962;42.696;23.354;2023-04-06T12:32:45;94714.00;;;6.81;55.54
7834;BME280;3962;42.696;23.354;2023-04-06T12:35:12;94709.09;;;6.76;54.39
7834;BME280;3962;42.696;23.354;2023-04-06T12:37:41;94715.66;;;6.91;54.13
7834;BME280;3962;42.696;23.354;2023-04-06T12:40:09;94717.88;;;6.86;53.84
7834;BME280;3962;42.696;23.354;2023-04-06T12:42:39;94702.03;;;6.86;53.61
7834;BME280;3962;42.696;23.354;2023-04-06T12:45:08;94703.41;;;7.00;53.73
7834;BME280;3962;42.696;23.354;2023-04-06T12:47:35;94708.00;;;6.88;53.47
7834;BME280;3962;42.696;23.354;2023-04-06T12:50:03;94703.81;;;6.57;53.84
7834;BME280;3962;42.696;23.354;2023-04-06T12:52:31;94705.06;;;6.53;54.85
7834;BME280;3962;42.696;23.354;2023-04-06T12:55:00;94709.81;;;6.97;54.22
7834;BME280;3962;42.696;23.354;2023-04-06T12:57:27;94701.19;;;6.95;53.63
7834;BME280;3962;42.696;23.354;2023-04-06T12:59:56;94709.09;;;6.76;54.11
7834;BME280;3962;42.696;23.354;2023-04-06T13:02:23;94703.69;;;6.78;53.65
7834;BME280;3962;42.696;23.354;2023-04-06T13:04:51;94699.63;;;6.83;52.92
7834;BME280;3962;42.696;23.354;2023-04-06T13:07:18;94689.75;;;6.66;52.66
7834;BME280;3962;42.696;23.354;2023-04-06T13:09:45;94699.78;;;6.72;52.92
7834;BME280;3962;42.696;23.354;2023-04-06T13:12:12;94690.88;;;6.64;53.90
7834;BME280;3962;42.696;23.354;2023-04-06T13:14:39;94697.00;;;6.45;55.30
7834;BME280;3962;42.696;23.354;2023-04-06T13:17:08;94691.41;;;6.39;54.30
7834;BME280;3962;42.696;23.354;2023-04-06T13:19:35;94683.94;;;6.53;55.35
7834;BME280;3962;42.696;23.354;2023-04-06T13:22:02;94681.81;;;6.57;55.30
7834;BME280;3962;42.696;23.354;2023-04-06T13:24:29;94686.28;;;6.66;53.82